Time;durP1;ratioP1;P1;durP2;ratioP2;P2;SDS_P1;SDS_P2;PMS_P1;PMS_P2;Temp;Humidity;BMP_temperature;BMP_pressure;BME280_temperature;BME280_humidity;BME280_pressure;Samples;Min_cycle;Max_cycle;Signal;HPM_P1;HPM_P2
2024/03/09 00:00:31;;;;;;;13.13;6.20;;;7.30;99.90;;;;;;4973232;28;20023;-75
2024/03/09 00:03:00;;;;;;;15.63;6.78;;;7.30;99.90;;;;;;4972728;28;20030;-76
2024/03/09 00:05:26;;;;;;;12.00;6.28;;;7.30;99.90;;;;;;4972391;28;20038;-76
2024/03/09 00:07:54;;;;;;;12.90;6.15;;;7.40;99.90;;;;;;4972651;28;20041;-76
2024/03/09 00:10:26;;;;;;;12.43;5.38;;;7.40;99.90;;;;;;4975792;28;20035;-76
2024/03/09 00:12:52;;;;;;;12.70;6.15;;;7.40;99.90;;;;;;4976732;28;20038;-76
2024/03/09 00:15:19;;;;;;;12.07;6.15;;;7.40;99.90;;;;;;4977074;28;20463;-77
2024/03/09 00:17:47;;;;;;;12.57;5.85;;;7.50;99.90;;;;;;4976194;28;20113;-78
2024/03/09 00:20:21;;;;;;;13.85;6.07;;;7.50;99.90;;;;;;4975893;28;20030;-76
2024/03/09 00:22:52;;;;;;;13.35;6.13;;;7.50;99.90;;;;;;4977533;28;20038;-76
2024/03/09 00:25:20;;;;;;;12.00;6.25;;;7.40;99.90;;;;;;4975869;28;20464;-76
2024/03/09 00:27:45;;;;;;;14.90;6.00;;;7.40;99.90;;;;;;4975813;28;20035;-76
2024/03/09 00:30:19;;;;;;;10.93;5.85;;;7.40;99.90;;;;;;4976982;28;20041;-76
2024/03/09 00:32:57;;;;;;;12.23;6.07;;;7.40;99.90;;;;;;4977451;28;20070;-77
2024/03/09 00:35:24;;;;;;;15.15;6.57;;;7.50;99.90;;;;;;4975458;28;20047;-76
2024/03/09 00:37:50;;;;;;;8.80;5.30;;;7.50;99.90;;;;;;4976069;28;20045;-78
2024/03/09 00:40:17;;;;;;;9.25;5.35;;;7.50;99.90;;;;;;4975489;28;20034;-76
2024/03/09 00:42:43;;;;;;;13.18;6.00;;;7.50;99.90;;;;;;4976311;28;20063;-76
2024/03/09 00:45:09;;;;;;;11.52;6.10;;;7.40;99.90;;;;;;4976703;28;20034;-77
2024/03/09 00:47:36;;;;;;;11.00;5.80;;;7.30;99.90;;;;;;4975767;28;20089;-76
2024/03/09 00:50:04;;;;;;;11.68;5.45;;;7.30;99.90;;;;;;4976943;28;20089;-76
2024/03/09 00:52:30;;;;;;;12.60;5.78;;;7.30;99.90;;;;;;4976600;28;20022;-76
2024/03/09 00:54:56;;;;;;;12.48;6.55;;;7.30;99.90;;;;;;4977006;28;20035;-76
2024/03/09 00:57:22;;;;;;;13.25;6.25;;;7.30;99.90;;;;;;4975388;28;20026;-77
2024/03/09 00:59:48;;;;;;;10.95;5.70;;;7.30;99.90;;;;;;4976842;28;20031;-76
2024/03/09 01:02:15;;;;;;;11.20;5.78;;;7.30;99.90;;;;;;4975027;28;20026;-77
2024/03/09 01:04:41;;;;;;;12.38;6.00;;;7.30;99.90;;;;;;4976483;28;20038;-76
2024/03/09 01:07:07;;;;;;;13.75;6.22;;;7.30;99.90;;;;;;4975332;28;20063;-75
2024/03/09 01:09:32;;;;;;;12.68;5.80;;;7.30;99.90;;;;;;4975138;28;20042;-76
2024/03/09 01:11:58;;;;;;;11.80;6.05;;;7.20;99.90;;;;;;4976608;28;20031;-76
2024/03/09 01:14:24;;;;;;;13.35;6.55;;;7.30;99.90;;;;;;4974957;28;20037;-77
2024/03/09 01:16:50;;;;;;;10.85;5.65;;;7.20;99.90;;;;;;4976765;28;20027;-76
2024/03/09 01:19:18;;;;;;;12.90;5.53;;;7.20;99.90;;;;;;4975924;28;20030;-76
2024/03/09 01:21:46;;;;;;;10.35;5.88;;;7.20;99.90;;;;;;4974327;28;20026;-75
2024/03/09 01:24:12;;;;;;;13.02;6.35;;;7.20;99.90;;;;;;4974879;28;20486;-76
2024/03/09 01:26:37;;;;;;;11.02;5.85;;;7.20;99.90;;;;;;4975297;28;20031;-76
2024/03/09 01:29:03;;;;;;;13.45;6.40;;;7.30;99.90;;;;;;4975217;28;20365;-76
2024/03/09 01:31:29;;;;;;;12.35;6.00;;;7.30;99.90;;;;;;4974672;28;20382;-77
2024/03/09 01:33:55;;;;;;;10.55;6.03;;;7.30;99.90;;;;;;4980253;28;20120;-76
2024/03/09 01:36:23;;;;;;;11.52;5.68;;;7.20;99.90;;;;;;4977957;28;20030;-76
2024/03/09 01:38:49;;;;;;;15.02;6.65;;;7.20;99.90;;;;;;4995557;28;20488;-76
2024/03/09 01:41:15;;;;;;;13.93;5.85;;;7.10;99.90;;;;;;4977737;28;20037;-77
2024/03/09 01:43:41;;;;;;;11.68;5.40;;;7.20;99.90;;;;;;4978093;28;20023;-76
2024/03/09 01:46:09;;;;;;;13.00;5.70;;;7.20;99.90;;;;;;4978176;28;20498;-76
2024/03/09 01:48:39;;;;;;;13.45;6.30;;;7.30;99.90;;;;;;4977376;28;20041;-77
2024/03/09 01:51:05;;;;;;;11.52;5.90;;;7.30;99.90;;;;;;4977969;28;20027;-76
2024/03/09 01:53:31;;;;;;;13.20;6.13;;;7.30;99.90;;;;;;4977662;28;20741;-76
2024/03/09 01:55:59;;;;;;;11.60;5.78;;;7.20;99.90;;;;;;4978251;28;20026;-76
2024/03/09 01:58:26;;;;;;;12.52;5.80;;;7.20;99.90;;;;;;4994883;28;20033;-76
2024/03/09 02:00:56;;;;;;;12.85;5.50;;;7.30;99.90;;;;;;4977799;28;20121;-76
2024/03/09 02:03:25;;;;;;;11.52;5.55;;;7.20;99.90;;;;;;4994729;28;20380;-76
2024/03/09 02:05:54;;;;;;;12.68;6.00;;;7.20;99.90;;;;;;4977895;28;20034;-76
2024/03/09 02:08:20;;;;;;;11.15;5.50;;;7.20;99.90;;;;;;4977045;28;20100;-76
2024/03/09 02:10:47;;;;;;;10.90;5.28;;;7.20;99.90;;;;;;4977629;28;20041;-76
2024/03/09 02:13:13;;;;;;;11.77;6.00;;;7.20;99.90;;;;;;4994410;28;20023;-82
2024/03/09 02:15:44;;;;;;;8.93;5.47;;;7.30;99.90;;;;;;4977460;28;20029;-77
2024/03/09 02:18:10;;;;;;;14.38;6.25;;;7.30;99.90;;;;;;4994600;28;20395;-76
2024/03/09 02:20:37;;;;;;;12.27;5.38;;;7.30;99.90;;;;;;4976763;28;20061;-76
2024/03/09 02:23:03;;;;;;;12.85;6.22;;;7.30;99.90;;;;;;4977296;28;20032;-76
2024/03/09 02:25:29;;;;;;;13.23;6.20;;;7.30;99.90;;;;;;4976908;28;20038;-76
2024/03/09 02:27:55;;;;;;;11.45;5.90;;;7.30;99.90;;;;;;4994610;28;20022;-76
2024/03/09 02:30:21;;;;;;;11.00;5.95;;;7.20;99.90;;;;;;4976980;28;20030;-76
2024/03/09 02:32:52;;;;;;;11.00;5.80;;;7.20;99.90;;;;;;4976712;28;20088;-76
2024/03/09 02:35:18;;;;;;;11.20;5.90;;;7.20;99.90;;;;;;4976490;28;20050;-77
2024/03/09 02:37:43;;;;;;;11.57;5.13;;;7.20;99.90;;;;;;4977029;28;20169;-76
2024/03/09 02:40:12;;;;;;;10.57;5.97;;;7.20;99.90;;;;;;4994241;28;20033;-76
2024/03/09 02:43:03;;;;;;;12.65;6.05;;;7.10;99.90;;;;;;4993970;28;20085;-76
2024/03/09 02:45:27;;;;;;;10.90;5.72;;;7.00;99.90;;;;;;4993882;28;20061;-76
2024/03/09 02:47:53;;;;;;;10.57;5.32;;;7.00;99.90;;;;;;4994210;28;20057;-76
2024/03/09 02:50:19;;;;;;;11.23;5.90;;;7.10;99.90;;;;;;4993951;28;20033;-77
2024/03/09 02:52:45;;;;;;;12.48;5.57;;;7.10;99.90;;;;;;4994087;28;20438;-75
2024/03/09 02:55:11;;;;;;;11.55;5.57;;;7.10;99.90;;;;;;4976690;28;20113;-76
2024/03/09 02:57:37;;;;;;;12.70;6.40;;;7.00;99.90;;;;;;4993589;28;20125;-76
2024/03/09 03:00:06;;;;;;;14.30;6.22;;;7.10;99.90;;;;;;4976729;28;20026;-76
2024/03/09 03:05:16;;;;;;;10.10;5.30;;;7.10;99.90;;;;;;4993598;28;20441;-77
2024/03/09 03:07:42;;;;;;;10.77;5.72;;;7.00;99.90;;;;;;4993572;28;20113;-76
2024/03/09 03:10:08;;;;;;;11.00;5.88;;;7.00;99.90;;;;;;4976528;28;20030;-76
2024/03/09 03:12:34;;;;;;;12.30;6.13;;;7.00;99.90;;;;;;4993628;28;20026;-76
2024/03/09 03:15:01;;;;;;;14.63;7.28;;;7.00;99.90;;;;;;4976769;28;20474;-76
2024/03/09 03:17:27;;;;;;;13.70;6.10;;;7.10;99.90;;;;;;4993445;28;20026;-77
2024/03/09 03:19:53;;;;;;;12.45;6.43;;;7.00;99.90;;;;;;4993769;28;20029;-76
2024/03/09 03:22:19;;;;;;;10.98;5.22;;;7.10;99.90;;;;;;4993536;28;20452;-77
2024/03/09 03:24:45;;;;;;;12.10;5.88;;;7.10;99.90;;;;;;4976413;28;20053;-76
2024/03/09 03:27:10;;;;;;;10.70;5.88;;;7.10;99.90;;;;;;4976303;28;20065;-76
2024/03/09 03:29:36;;;;;;;11.63;5.85;;;7.10;99.90;;;;;;4975724;28;20278;-76
2024/03/09 03:32:04;;;;;;;11.88;6.00;;;7.10;99.90;;;;;;4976275;28;20110;-76
2024/03/09 03:34:31;;;;;;;14.27;6.35;;;7.10;99.90;;;;;;4993116;28;20070;-76
2024/03/09 03:36:56;;;;;;;11.18;5.47;;;7.20;99.90;;;;;;4993612;28;20031;-76
2024/03/09 03:39:22;;;;;;;14.80;6.63;;;7.20;99.90;;;;;;4975942;28;20027;-76
2024/03/09 03:41:52;;;;;;;12.48;5.85;;;7.10;99.90;;;;;;4976788;28;20027;-76
2024/03/09 03:44:19;;;;;;;12.35;5.53;;;7.10;99.90;;;;;;4978071;28;20037;-85
2024/03/09 03:46:44;;;;;;;15.50;6.03;;;7.10;99.90;;;;;;4980365;28;20109;-75
2024/03/09 03:49:10;;;;;;;10.23;5.50;;;7.10;99.90;;;;;;4980096;28;20548;-76
2024/03/09 03:51:36;;;;;;;12.80;5.90;;;7.10;99.90;;;;;;4997130;28;20464;-77
2024/03/09 03:54:02;;;;;;;13.90;5.90;;;7.00;99.90;;;;;;4979882;28;20031;-76
2024/03/09 03:56:27;;;;;;;12.20;6.15;;;7.00;99.90;;;;;;4979449;28;20033;-76
2024/03/09 03:58:53;;;;;;;12.95;6.18;;;7.00;99.90;;;;;;4979534;28;20033;-76
2024/03/09 04:01:22;;;;;;;13.13;5.78;;;7.00;99.90;;;;;;4979395;28;20073;-79
2024/03/09 04:03:48;;;;;;;11.27;5.88;;;6.90;99.90;;;;;;4979775;28;20030;-76
2024/03/09 04:06:13;;;;;;;12.45;5.82;;;6.90;99.90;;;;;;4997167;28;20030;-76
2024/03/09 04:08:39;;;;;;;11.63;5.90;;;6.90;99.90;;;;;;4979113;28;20034;-76
2024/03/09 04:11:06;;;;;;;13.48;5.90;;;6.90;99.90;;;;;;4997004;28;20026;-76
2024/03/09 04:13:32;;;;;;;12.73;6.00;;;6.90;99.90;;;;;;4996678;28;20050;-76
2024/03/09 04:15:58;;;;;;;14.15;6.55;;;6.90;99.90;;;;;;4979657;28;20110;-76
2024/03/09 04:18:26;;;;;;;11.98;6.22;;;6.80;99.90;;;;;;4996566;28;20026;-77
2024/03/09 04:20:53;;;;;;;14.00;5.95;;;6.80;99.90;;;;;;4979381;28;20066;-76
2024/03/09 04:23:21;;;;;;;9.98;5.10;;;6.80;99.90;;;;;;4979251;28;20030;-76
2024/03/09 04:25:46;;;;;;;12.35;6.00;;;6.80;99.90;;;;;;4979363;28;20065;-76
2024/03/09 04:28:15;;;;;;;13.18;5.88;;;6.80;99.90;;;;;;4979106;28;20062;-76
2024/03/09 04:30:42;;;;;;;11.30;5.88;;;6.80;99.90;;;;;;4979139;28;20092;-76
2024/03/09 04:33:11;;;;;;;11.18;6.05;;;6.80;99.90;;;;;;4996651;28;20058;-76
2024/03/09 04:35:37;;;;;;;12.95;6.55;;;6.80;99.90;;;;;;4978814;28;20100;-76
2024/03/09 04:38:04;;;;;;;11.43;5.90;;;6.80;99.90;;;;;;4979421;28;20033;-76
2024/03/09 04:40:30;;;;;;;10.70;5.80;;;6.80;99.90;;;;;;4978766;28;20057;-75
2024/03/09 04:42:56;;;;;;;13.10;5.63;;;6.80;99.90;;;;;;4979452;28;20030;-76
2024/03/09 04:45:25;;;;;;;14.68;6.00;;;6.80;99.90;;;;;;4996094;28;20034;-79
2024/03/09 04:47:54;;;;;;;12.35;6.32;;;6.70;99.90;;;;;;4996710;28;20034;-76
2024/03/09 04:50:21;;;;;;;16.55;6.88;;;6.70;99.90;;;;;;4979317;28;20192;-76
2024/03/09 04:52:47;;;;;;;11.70;6.43;;;6.70;99.90;;;;;;4996438;28;20034;-76
2024/03/09 04:55:30;;;;;;;15.27;6.17;;;6.70;99.90;;;;;;4978638;28;20041;-76
2024/03/09 04:57:59;;;;;;;14.30;6.60;;;6.70;99.90;;;;;;4979102;28;20379;-76
2024/03/09 05:00:28;;;;;;;14.05;6.97;;;6.70;99.90;;;;;;4978507;28;20037;-76
2024/03/09 05:02:55;;;;;;;17.83;6.80;;;6.70;99.90;;;;;;4978880;28;20029;-76
2024/03/09 05:05:21;;;;;;;12.48;6.25;;;6.70;99.90;;;;;;4978391;28;20034;-76
2024/03/09 05:07:48;;;;;;;14.98;7.07;;;6.60;99.90;;;;;;4995844;28;20039;-76
2024/03/09 05:10:18;;;;;;;14.38;6.90;;;6.50;99.90;;;;;;4996125;28;20089;-76
2024/03/09 05:12:50;;;;;;;13.48;6.93;;;6.50;99.90;;;;;;4995633;28;20479;-76
2024/03/09 05:15:15;;;;;;;15.20;6.57;;;6.50;99.90;;;;;;4978865;28;20034;-76
2024/03/09 05:17:41;;;;;;;14.87;7.07;;;6.50;99.90;;;;;;4995798;28;20089;-76
2024/03/09 05:20:11;;;;;;;13.70;6.23;;;6.50;99.90;;;;;;4978606;28;20026;-76
2024/03/09 05:22:38;;;;;;;12.48;6.28;;;6.50;99.90;;;;;;4995478;28;20427;-76
2024/03/09 05:25:10;;;;;;;17.27;6.93;;;6.50;99.90;;;;;;4978721;28;20030;-76
2024/03/09 05:27:40;;;;;;;14.17;7.07;;;6.50;99.90;;;;;;4978141;28;20271;-76
2024/03/09 05:30:09;;;;;;;13.23;6.77;;;6.50;99.90;;;;;;4978695;28;20030;-75
2024/03/09 05:32:35;;;;;;;16.70;6.78;;;6.40;99.90;;;;;;4995223;28;20109;-76
2024/03/09 05:35:01;;;;;;;15.70;6.87;;;6.40;99.90;;;;;;4974834;28;20475;-76
2024/03/09 05:37:26;;;;;;;15.83;6.73;;;6.40;99.90;;;;;;4974426;28;20039;-77
2024/03/09 05:39:52;;;;;;;17.23;7.07;;;6.40;99.90;;;;;;4976380;28;20026;-76
2024/03/09 05:42:17;;;;;;;13.37;6.43;;;6.40;99.90;;;;;;4975066;28;20085;-76
2024/03/09 05:44:45;;;;;;;14.47;6.70;;;6.40;99.90;;;;;;4975761;28;20456;-76
2024/03/09 05:47:11;;;;;;;15.87;6.93;;;6.40;99.90;;;;;;4974916;28;20023;-76
2024/03/09 05:49:37;;;;;;;17.47;7.43;;;6.40;99.90;;;;;;4974371;28;20173;-76
2024/03/09 05:52:02;;;;;;;16.00;6.80;;;6.40;99.90;;;;;;4974722;28;20468;-76
2024/03/09 05:54:31;;;;;;;16.10;6.77;;;6.40;99.90;;;;;;4974239;28;20033;-77
2024/03/09 05:56:56;;;;;;;14.33;6.57;;;6.40;99.90;;;;;;4974678;28;20026;-76
2024/03/09 05:59:22;;;;;;;16.53;7.03;;;6.40;99.90;;;;;;4974510;28;20380;-76
2024/03/09 06:01:47;;;;;;;14.70;6.53;;;6.40;99.90;;;;;;4974137;28;20097;-76
2024/03/09 06:04:13;;;;;;;15.50;7.23;;;6.30;99.90;;;;;;4975814;28;20027;-76
2024/03/09 06:06:40;;;;;;;13.30;6.27;;;6.30;99.90;;;;;;4974565;28;20039;-76
2024/03/09 06:09:07;;;;;;;13.70;6.80;;;6.30;99.90;;;;;;4975716;28;20026;-76
2024/03/09 06:11:32;;;;;;;16.10;7.57;;;6.30;99.90;;;;;;4974213;28;20494;-76
2024/03/09 06:13:58;;;;;;;12.93;6.47;;;6.30;99.90;;;;;;4975537;28;20054;-76
2024/03/09 06:16:23;;;;;;;14.10;7.20;;;6.20;99.90;;;;;;4975592;28;20058;-76
2024/03/09 06:18:49;;;;;;;14.47;6.93;;;6.20;99.90;;;;;;4974059;28;20471;-76
2024/03/09 06:21:17;;;;;;;15.50;7.43;;;6.10;99.90;;;;;;4974273;28;20022;-76
2024/03/09 06:23:44;;;;;;;16.23;6.70;;;6.10;99.90;;;;;;4974956;28;20466;-75
2024/03/09 06:26:10;;;;;;;16.73;7.10;;;6.10;99.90;;;;;;4975536;28;20033;-76
2024/03/09 06:28:38;;;;;;;13.45;6.28;;;6.10;99.90;;;;;;4973484;28;20030;-76
2024/03/09 06:31:04;;;;;;;14.43;6.43;;;6.10;99.90;;;;;;4974180;28;20027;-76
2024/03/09 06:33:31;;;;;;;15.90;6.63;;;6.00;99.90;;;;;;4974117;28;20089;-77
2024/03/09 06:35:57;;;;;;;16.57;6.93;;;6.00;99.90;;;;;;4977607;28;20034;-76
2024/03/09 06:38:23;;;;;;;14.80;6.93;;;6.10;99.90;;;;;;4994683;28;20041;-76
2024/03/09 06:40:50;;;;;;;17.60;7.30;;;6.10;99.90;;;;;;4976510;28;20026;-76
2024/03/09 06:43:17;;;;;;;15.87;6.63;;;6.00;99.90;;;;;;4994334;28;20039;-76
2024/03/09 06:45:47;;;;;;;17.33;7.23;;;6.00;99.90;;;;;;4976479;28;20442;-76
2024/03/09 06:48:15;;;;;;;16.60;7.20;;;6.00;99.90;;;;;;4976466;28;20038;-76
2024/03/09 06:50:46;;;;;;;15.43;6.57;;;6.00;99.90;;;;;;4976422;28;20045;-76
2024/03/09 06:53:13;;;;;;;15.88;6.90;;;6.00;99.90;;;;;;4976938;28;20080;-76
2024/03/09 06:55:39;;;;;;;16.63;7.57;;;6.00;99.90;;;;;;4976168;28;20033;-76
2024/03/09 06:58:04;;;;;;;16.50;7.17;;;6.10;99.90;;;;;;4994136;28;20112;-76
2024/03/09 07:00:34;;;;;;;15.60;7.13;;;6.00;99.90;;;;;;4976114;28;20064;-77
2024/03/09 07:02:59;;;;;;;15.18;7.47;;;6.00;99.90;;;;;;4976728;28;20423;-76
2024/03/09 07:05:30;;;;;;;15.10;7.27;;;6.10;99.90;;;;;;4976524;28;20026;-76
2024/03/09 07:07:58;;;;;;;15.27;7.27;;;6.10;99.90;;;;;;4976567;28;20042;-76
2024/03/09 07:10:24;;;;;;;13.77;7.17;;;6.10;99.90;;;;;;4976743;28;20468;-76
2024/03/09 07:12:49;;;;;;;14.70;7.07;;;6.10;99.90;;;;;;4976241;28;20450;-76
2024/03/09 07:15:16;;;;;;;16.07;7.30;;;6.10;99.90;;;;;;4976465;28;20022;-76
2024/03/09 07:17:49;;;;;;;17.00;7.43;;;6.10;99.90;;;;;;4975464;28;20026;-75
2024/03/09 07:20:16;;;;;;;15.03;7.47;;;6.10;99.90;;;;;;4976169;28;20026;-75
2024/03/09 07:22:49;;;;;;;17.27;7.43;;;6.10;99.90;;;;;;4992895;28;20033;-76
2024/03/09 07:25:23;;;;;;;16.00;7.73;;;6.10;99.90;;;;;;4976253;28;20031;-76
2024/03/09 07:27:49;;;;;;;20.87;8.00;;;6.10;99.90;;;;;;4975927;28;20026;-76
2024/03/09 07:30:15;;;;;;;14.63;7.30;;;6.10;99.90;;;;;;4976334;28;20121;-76
2024/03/09 07:32:48;;;;;;;18.93;7.63;;;6.10;99.90;;;;;;4975567;28;20165;-76
2024/03/09 07:35:14;;;;;;;18.70;7.87;;;6.10;99.90;;;;;;4976031;28;20050;-76
2024/03/09 07:37:55;;;;;;;15.77;7.47;;;6.10;99.90;;;;;;4975667;28;20057;-76
2024/03/09 07:40:22;;;;;;;15.40;7.40;;;6.10;99.90;;;;;;4976199;28;20030;-76
2024/03/09 07:42:53;;;;;;;17.07;7.40;;;6.10;99.90;;;;;;4992978;28;20054;-76
2024/03/09 07:45:21;;;;;;;18.60;7.80;;;6.10;99.90;;;;;;4976069;28;20026;-75
2024/03/09 07:47:51;;;;;;;14.43;7.10;;;6.20;99.90;;;;;;4975517;28;20063;-76
2024/03/09 07:50:20;;;;;;;18.30;7.53;;;6.10;99.90;;;;;;4976087;28;20037;-76
2024/03/09 07:52:50;;;;;;;19.17;7.90;;;6.20;99.90;;;;;;4975636;28;20030;-76
2024/03/09 07:55:17;;;;;;;15.73;7.40;;;6.20;99.90;;;;;;4976138;28;20034;-76
2024/03/09 07:57:47;;;;;;;13.68;7.63;;;6.30;99.90;;;;;;4975533;28;20113;-76
2024/03/09 08:00:17;;;;;;;17.27;7.63;;;6.30;99.90;;;;;;4976076;28;20383;-76
2024/03/09 08:02:46;;;;;;;16.30;8.32;;;6.30;99.90;;;;;;4992915;28;20459;-76
2024/03/09 08:05:14;;;;;;;15.57;7.30;;;6.30;99.90;;;;;;4975844;28;20038;-76
2024/03/09 08:07:42;;;;;;;15.60;7.10;;;6.40;99.90;;;;;;4975462;28;20049;-76
2024/03/09 08:10:09;;;;;;;19.50;7.63;;;6.40;99.90;;;;;;4975954;28;20041;-76
2024/03/09 08:12:34;;;;;;;17.83;7.47;;;6.40;99.90;;;;;;4975443;28;20030;-76
2024/03/09 08:15:02;;;;;;;17.03;8.10;;;6.40;99.90;;;;;;4976203;28;20034;-76
2024/03/09 08:17:28;;;;;;;15.90;7.63;;;6.50;99.90;;;;;;4975880;28;20046;-76
2024/03/09 08:19:53;;;;;;;15.47;7.43;;;6.50;99.90;;;;;;4992875;28;20538;-76
2024/03/09 08:22:22;;;;;;;17.23;7.47;;;6.50;99.90;;;;;;4975801;28;20031;-76
2024/03/09 08:24:48;;;;;;;14.87;7.07;;;6.60;99.90;;;;;;4975342;28;20486;-76
2024/03/09 08:27:14;;;;;;;18.83;6.95;;;6.60;99.90;;;;;;4992964;28;20034;-76
2024/03/09 08:29:40;;;;;;;15.10;7.10;;;6.70;99.90;;;;;;4976214;28;20027;-76
2024/03/09 08:32:05;;;;;;;16.08;7.05;;;6.70;99.90;;;;;;4979294;28;20177;-76
2024/03/09 08:34:32;;;;;;;17.27;7.10;;;6.80;99.90;;;;;;4975649;28;20047;-75
2024/03/09 08:36:59;;;;;;;16.90;7.07;;;6.90;99.90;;;;;;4975743;28;20031;-76
2024/03/09 08:39:25;;;;;;;15.30;7.40;;;6.90;99.90;;;;;;4976062;28;20472;-75
2024/03/09 08:41:51;;;;;;;16.00;7.05;;;7.00;99.90;;;;;;4975432;28;20118;-76
2024/03/09 08:44:19;;;;;;;12.90;6.50;;;7.00;99.90;;;;;;4975726;28;20515;-75
2024/03/09 08:46:45;;;;;;;13.93;6.65;;;7.10;99.90;;;;;;4975073;28;20027;-76
2024/03/09 08:49:10;;;;;;;15.82;7.47;;;7.10;99.90;;;;;;4975668;28;20039;-76
2024/03/09 08:51:38;;;;;;;15.20;6.88;;;7.20;99.90;;;;;;4974950;28;20041;-84
2024/03/09 08:54:04;;;;;;;14.55;6.82;;;7.20;99.90;;;;;;4975868;28;20042;-76
2024/03/09 08:56:31;;;;;;;16.83;7.53;;;7.30;99.90;;;;;;4976796;28;20044;-75
2024/03/09 08:58:57;;;;;;;14.43;6.90;;;7.30;99.90;;;;;;4975277;28;20047;-76
2024/03/09 09:01:22;;;;;;;14.05;6.53;;;7.30;99.90;;;;;;4976893;28;20381;-76
2024/03/09 09:03:48;;;;;;;12.52;6.40;;;7.40;99.90;;;;;;4974675;28;20077;-76
2024/03/09 09:06:17;;;;;;;14.35;7.10;;;7.40;99.90;;;;;;4975333;28;20038;-76
2024/03/09 09:08:43;;;;;;;13.88;6.82;;;7.50;99.90;;;;;;4974938;28;20093;-76
2024/03/09 09:11:13;;;;;;;17.75;7.63;;;7.50;99.90;;;;;;4975433;28;20500;-76
2024/03/09 09:13:38;;;;;;;16.00;7.63;;;7.60;99.90;;;;;;4975229;28;20027;-76
2024/03/09 09:16:04;;;;;;;15.55;6.68;;;7.70;99.90;;;;;;4976641;28;20033;-76
2024/03/09 09:18:30;;;;;;;18.58;6.70;;;7.70;99.90;;;;;;4976451;28;20062;-76
2024/03/09 09:20:55;;;;;;;13.52;7.13;;;7.80;99.90;;;;;;4974975;28;20030;-76
2024/03/09 09:23:21;;;;;;;15.57;7.50;;;7.80;99.90;;;;;;4975069;28;20077;-76
2024/03/09 09:25:47;;;;;;;18.17;6.65;;;7.90;99.90;;;;;;4975593;28;20058;-76
2024/03/09 09:28:15;;;;;;;16.30;6.53;;;7.90;99.90;;;;;;4976195;28;20031;-76
2024/03/09 09:30:43;;;;;;;14.90;6.90;;;8.00;99.90;;;;;;4974561;28;20373;-76
2024/03/09 09:33:13;;;;;;;13.77;6.38;;;8.10;99.90;;;;;;4974534;28;20030;-77
2024/03/09 09:35:39;;;;;;;14.40;6.82;;;8.20;99.90;;;;;;4974489;28;20062;-84
2024/03/09 09:38:04;;;;;;;17.35;7.57;;;8.20;99.90;;;;;;4974743;28;20403;-76
2024/03/09 09:40:32;;;;;;;14.68;6.90;;;8.30;99.90;;;;;;4975638;28;20150;-75
2024/03/09 09:43:00;;;;;;;13.48;6.78;;;8.40;99.90;;;;;;4973803;28;20042;-76
2024/03/09 09:45:28;;;;;;;17.33;7.65;;;8.50;99.90;;;;;;4974754;28;20109;-76
2024/03/09 09:47:54;;;;;;;15.20;6.47;;;8.50;99.90;;;;;;4975380;28;20031;-76
2024/03/09 09:50:22;;;;;;;16.23;7.05;;;8.60;99.90;;;;;;4974538;28;20031;-76
2024/03/09 09:52:49;;;;;;;12.20;5.97;;;8.60;99.90;;;;;;4974264;28;20054;-76
2024/03/09 09:55:16;;;;;;;14.80;6.88;;;8.70;99.90;;;;;;4974983;28;20159;-76
2024/03/09 09:57:47;;;;;;;14.63;6.72;;;8.70;99.90;;;;;;4975298;28;20033;-77
2024/03/09 10:00:14;;;;;;;15.25;7.07;;;8.70;99.90;;;;;;4974961;28;20528;-76
2024/03/09 10:02:41;;;;;;;16.75;7.18;;;8.80;99.90;;;;;;4974290;28;20072;-84
2024/03/09 10:05:16;;;;;;;13.00;6.13;;;8.90;99.90;;;;;;4975885;28;20068;-76
2024/03/09 10:08:14;;;;;;;13.60;6.32;;;9.00;99.90;;;;;;4974265;28;20031;-76
2024/03/09 10:10:47;;;;;;;14.85;6.68;;;9.10;99.90;;;;;;4955744;28;20074;-76
2024/03/09 10:13:15;;;;;;;14.23;6.85;;;9.30;99.90;;;;;;4974488;28;20035;-76
2024/03/09 10:15:47;;;;;;;13.40;6.88;;;9.30;99.90;;;;;;4974334;28;20117;-76
2024/03/09 10:18:15;;;;;;;11.93;5.72;;;9.30;99.90;;;;;;4974528;28;20054;-76
2024/03/09 10:20:41;;;;;;;13.77;6.95;;;9.50;99.90;;;;;;4974045;28;20138;-84
2024/03/09 10:23:11;;;;;;;16.20;6.88;;;9.50;99.90;;;;;;4973833;28;20491;-77
2024/03/09 10:25:38;;;;;;;14.13;6.75;;;9.60;99.90;;;;;;4974226;28;20033;-76
2024/03/09 10:28:05;;;;;;;14.02;6.80;;;9.60;99.90;;;;;;4973433;28;20058;-76
2024/03/09 10:30:31;;;;;;;16.67;7.07;;;9.70;99.90;;;;;;4974117;28;20047;-76
2024/03/09 10:33:00;;;;;;;15.13;6.60;;;9.70;99.90;;;;;;4974631;28;20508;-76
2024/03/09 10:35:26;;;;;;;15.10;6.90;;;9.70;99.90;;;;;;4991616;28;20047;-77
2024/03/09 10:37:57;;;;;;;13.73;6.60;;;9.90;99.90;;;;;;4994098;28;20030;-77
2024/03/09 10:40:24;;;;;;;15.02;7.35;;;10.00;99.90;;;;;;4977107;28;20380;-76
2024/03/09 10:42:51;;;;;;;12.38;6.30;;;10.10;99.90;;;;;;4976501;28;20088;-76
2024/03/09 10:45:22;;;;;;;14.45;7.07;;;10.10;99.90;;;;;;4994296;28;20040;-76
2024/03/09 10:47:50;;;;;;;14.90;7.05;;;10.20;99.90;;;;;;4976352;28;20038;-76
2024/03/09 10:50:23;;;;;;;12.68;6.45;;;10.30;99.90;;;;;;4977058;28;20034;-76
2024/03/09 10:52:57;;;;;;;12.85;6.70;;;10.40;99.90;;;;;;4976272;28;20423;-77
2024/03/09 10:55:34;;;;;;;13.32;7.03;;;10.50;99.90;;;;;;4994242;28;20030;-76
2024/03/09 10:58:04;;;;;;;15.00;6.93;;;10.50;99.90;;;;;;4976315;28;20064;-76
2024/03/09 11:00:31;;;;;;;15.85;7.22;;;10.60;99.90;;;;;;4976697;28;20027;-76
2024/03/09 11:03:03;;;;;;;14.32;6.95;;;10.60;99.90;;;;;;4993585;28;20026;-76
2024/03/09 11:05:30;;;;;;;17.08;7.40;;;10.60;99.90;;;;;;4994054;28;20030;-76
2024/03/09 11:07:56;;;;;;;15.35;7.15;;;10.60;99.90;;;;;;4976033;28;20034;-76
2024/03/09 11:10:25;;;;;;;15.18;7.55;;;10.70;99.90;;;;;;4976834;28;20383;-76
2024/03/09 11:12:51;;;;;;;16.65;7.60;;;10.80;99.90;;;;;;4975845;28;20084;-77
2024/03/09 11:15:21;;;;;;;14.73;7.05;;;10.80;99.90;;;;;;4993471;28;20069;-76
2024/03/09 11:17:46;;;;;;;13.90;7.00;;;10.90;99.90;;;;;;4975995;28;20434;-77
2024/03/09 11:20:15;;;;;;;14.75;7.53;;;11.00;99.90;;;;;;4976375;28;20027;-77
2024/03/09 11:22:47;;;;;;;15.52;7.50;;;11.00;99.90;;;;;;4976515;28;20031;-77
2024/03/09 11:25:14;;;;;;;14.90;7.00;;;11.10;99.90;;;;;;4975874;28;20114;-76
2024/03/09 11:27:42;;;;;;;19.20;7.88;;;11.10;99.90;;;;;;4976203;28;20432;-76
2024/03/09 11:30:12;;;;;;;15.45;7.85;;;11.20;99.90;;;;;;4975759;28;20117;-76
2024/03/09 11:32:41;;;;;;;16.05;6.93;;;11.20;99.90;;;;;;4993602;28;20049;-76
2024/03/09 11:35:27;;;;;;;15.63;7.50;;;11.30;99.90;;;;;;4993217;28;20097;-78
2024/03/09 11:37:56;;;;;;;17.98;7.95;;;11.30;99.90;;;;;;4993168;28;20038;-76
2024/03/09 11:40:23;;;;;;;13.38;7.13;;;11.40;99.90;;;;;;4976228;28;20483;-76
2024/03/09 11:42:58;;;;;;;18.13;8.27;;;11.50;99.90;;;;;;4975750;28;20026;-77
2024/03/09 11:45:29;;;;;;;16.02;7.35;;;11.60;99.90;;;;;;4976480;28;20039;-76
2024/03/09 11:47:56;;;;;;;13.73;7.05;;;11.70;99.90;;;;;;4975779;28;20383;-77
2024/03/09 11:50:21;;;;;;;16.52;7.28;;;11.80;99.90;;;;;;4993723;28;20046;-76
2024/03/09 11:52:47;;;;;;;13.75;7.10;;;11.90;99.90;;;;;;4975534;28;20470;-80
2024/03/09 11:55:13;;;;;;;16.10;6.85;;;12.00;99.90;;;;;;4993565;28;20117;-76
2024/03/09 11:57:38;;;;;;;16.27;7.10;;;12.10;99.90;;;;;;4976410;28;20383;-76
2024/03/09 12:00:08;;;;;;;14.30;7.22;;;12.20;99.90;;;;;;4993100;28;20023;-76
2024/03/09 12:02:38;;;;;;;14.18;7.40;;;12.30;99.90;;;;;;4976046;28;20077;-76
2024/03/09 12:05:17;;;;;;;13.15;6.82;;;12.40;99.90;;;;;;4994887;28;20077;-76
2024/03/09 12:07:45;;;;;;;16.13;6.90;;;12.40;99.90;;;;;;4996985;28;20058;-76
2024/03/09 12:10:13;;;;;;;14.82;6.68;;;12.60;99.90;;;;;;4996702;28;20030;-76
2024/03/09 12:12:45;;;;;;;12.90;6.85;;;12.70;99.90;;;;;;4979903;28;20461;-76
2024/03/09 12:15:12;;;;;;;13.00;6.10;;;12.80;99.90;;;;;;4979212;28;20026;-76
2024/03/09 12:17:42;;;;;;;13.80;6.82;;;13.00;99.90;;;;;;4979764;28;20364;-76
2024/03/09 12:20:09;;;;;;;12.80;6.78;;;13.10;99.90;;;;;;4996536;28;20056;-76
2024/03/09 12:22:35;;;;;;;13.60;6.22;;;13.30;99.90;;;;;;4996630;28;20373;-76
2024/03/09 12:25:03;;;;;;;9.68;5.80;;;13.40;99.90;;;;;;4979009;28;20027;-77
2024/03/09 12:27:30;;;;;;;11.10;6.03;;;13.50;99.90;;;;;;4979570;28;20026;-76
2024/03/09 12:29:57;;;;;;;12.20;6.50;;;13.70;99.90;;;;;;4996170;28;20045;-76
2024/03/09 12:32:26;;;;;;;11.00;5.70;;;13.80;99.90;;;;;;4979239;28;20121;-76
2024/03/09 12:34:55;;;;;;;12.00;5.72;;;13.90;99.90;;;;;;4996055;28;20129;-77
2024/03/09 12:37:28;;;;;;;13.80;6.57;;;14.10;99.90;;;;;;4996600;28;20061;-76
2024/03/09 12:40:18;;;;;;;11.10;5.88;;;14.40;99.90;;;;;;4996040;28;20038;-77
2024/03/09 12:42:44;;;;;;;12.63;5.97;;;14.60;99.40;;;;;;4979285;28;20382;-76
2024/03/09 12:45:24;;;;;;;12.30;6.30;;;14.80;99.30;;;;;;4996232;28;20026;-76
2024/03/09 12:47:50;;;;;;;12.07;6.05;;;15.10;99.50;;;;;;4978633;28;20026;-76
2024/03/09 12:50:19;;;;;;;11.73;6.43;;;15.10;99.10;;;;;;4978918;28;20467;-76